EDT,Max TemperatureF,Mean TemperatureF,Min TemperatureF,Max Dew PointF,MeanDew PointF,Min DewpointF,Max Humidity, Mean Humidity, Min Humidity, Max Sea Level PressureIn, Mean Sea Level PressureIn, Min Sea Level PressureIn, Max VisibilityMiles, Mean VisibilityMiles, Min VisibilityMiles, Max Wind SpeedMPH, Mean Wind SpeedMPH, Max Gust SpeedMPH,PrecipitationIn, CloudCover, Events, WindDirDegrees
2013-8-1,82,78,73,81,77,73,100,98,89,30.01,29.97,29.93,10,9,5,8,2,,0.00,5,Rain-Thunderstorm,194
2013-8-2,87,80,73,81,77,73,100,93,75,30.06,30.00,29.94,10,9,3,8,1,,0.00,4,Thunderstorm,197
2013-8-3,91,82,73,82,78,73,100,87,66,30.05,30.00,29.93,10,9,4,7,1,,0.00,2,,189
2013-8-4,91,82,73,79,76,73,100,86,62,30.02,29.95,29.91,10,8,2,8,1,,0.00,1,,327
2013-8-5,86,78,69,75,72,68,100,84,58,30.07,30.03,29.99,10,9,4,14,3,17,0.00,2,,101
2013-8-6,84,76,68,79,72,68,100,89,62,30.06,30.03,29.99,10,10,7,8,1,,0.00,3,Rain,110
2013-8-7,87,79,71,77,73,72,100,86,62,30.09,30.06,30.02,10,10,5,12,2,16,0.00,3,,104
2013-8-8,91,80,69,79,75,70,100,84,52,30.07,30.04,30.01,10,8,2,8,1,,0.00,1,,175
2013-8-9,91,82,73,81,77,73,100,83,63,30.12,30.07,30.03,10,9,0,10,4,,0.00,2,Fog,178
2013-8-10,95,84,73,81,77,73,100,84,49,30.14,30.10,30.06,10,10,7,9,2,,0.00,1,,201
2013-8-11,95,86,77,81,78,73,100,81,49,30.14,30.10,30.05,10,10,10,10,2,16,0.00,1,,227
2013-8-12,96,86,77,82,79,77,100,81,56,30.08,30.02,29.95,10,10,5,10,3,,0.00,1,,230
2013-8-13,95,86,77,82,79,77,100,86,59,29.98,29.91,29.83,10,10,7,14,4,20,0.00,2,Rain-Thunderstorm,209
2013-8-14,82,75,68,79,76,68,100,96,79,30.05,29.93,29.84,10,9,2,8,2,,0.00,6,Rain-Thunderstorm,21
2013-8-15,71,66,62,70,67,63,100,99,94,30.12,30.08,30.04,10,8,3,9,5,,0.00,8,Rain,25
2013-8-16,71,68,66,72,69,66,100,100,94,30.12,30.08,30.05,10,9,1,8,2,,0.00,8,Rain,22
2013-8-17,75,72,68,73,71,68,100,100,94,30.17,30.11,30.05,10,8,4,7,3,,0.00,8,Thunderstorm,345
2013-8-18,87,78,69,81,75,70,100,93,70,30.21,30.16,30.12,10,7,3,5,0,,0.00,6,Rain,60
2013-8-19,82,78,73,81,77,73,100,98,89,30.17,30.11,30.07,10,7,0,8,1,,0.00,6,Fog-Rain-Thunderstorm,348
2013-8-20,86,80,73,81,77,73,100,98,79,30.18,30.13,30.09,10,6,0,9,1,,0.00,6,Fog-Rain-Thunderstorm,74
2013-8-21,91,82,73,82,76,73,100,90,66,30.23,30.17,30.11,10,7,0,13,1,26,0.00,4,Fog-Thunderstorm,161
2013-8-22,89,81,73,81,77,73,100,91,62,30.17,30.11,30.03,10,9,5,8,1,,0.00,2,Rain-Thunderstorm,219
2013-8-23,91,81,71,81,75,72,100,92,66,30.06,30.02,29.96,10,7,1,15,2,31,0.00,2,Rain-Thunderstorm,262
2013-8-24,82,76,69,75,72,70,100,91,70,30.25,30.15,30.02,10,9,2,8,2,16,0.00,5,Thunderstorm,10
2013-8-25,82,73,64,70,67,63,100,83,51,30.34,30.28,30.25,10,10,10,10,3,17,0.00,0,,21
2013-8-26,84,73,62,72,67,63,100,83,51,30.29,30.22,30.14,10,10,10,9,1,,0.00,1,,357
2013-8-27,86,74,62,75,70,63,100,85,62,30.16,30.07,30.01,10,9,1,6,1,,0.00,1,,214
2013-8-28,91,81,71,79,74,72,100,84,55,30.03,29.99,29.94,10,10,7,8,1,,0.00,1,,227
2013-8-29,93,83,73,81,76,73,100,88,59,29.96,29.92,29.86,10,9,5,13,2,22,0.00,1,Rain-Thunderstorm,264
2013-8-30,87,80,73,77,74,72,100,89,62,30.04,29.98,29.95,10,8,4,8,2,,0.00,4,,34
2013-8-31,91,81,71,79,76,72,100,89,59,29.99,29.94,29.89,10,7,0,7,1,,0.00,4,Fog,188